createdAt,value
2023-01-18T00:01:20.534Z,75.13
2023-01-18T00:03:47.638Z,75.93
2023-01-18T00:06:15.109Z,76.01
2023-01-18T00:08:42.661Z,75.74
2023-01-18T00:11:15.686Z,75.50
2023-01-18T00:13:43.383Z,75.57
2023-01-18T00:16:19.099Z,74.36
2023-01-18T00:18:54.413Z,74.91
2023-01-18T00:21:21.605Z,75.21
2023-01-18T00:23:48.528Z,75.96
2023-01-18T00:26:15.788Z,75.90
2023-01-18T00:28:43.257Z,75.19
2023-01-18T00:31:16.350Z,75.01
2023-01-18T00:33:44.397Z,75.23
2023-01-18T00:36:12.452Z,75.49
2023-01-18T00:38:39.718Z,75.28
2023-01-18T00:41:06.667Z,75.34
2023-01-18T00:43:39.358Z,75.34
2023-01-18T00:46:10.497Z,75.25
2023-01-18T00:48:41.470Z,75.25
2023-01-18T00:51:11.162Z,75.98
2023-01-18T00:53:38.838Z,76.00
2023-01-18T00:56:10.966Z,75.80
2023-01-18T00:58:38.148Z,75.03
2023-01-18T01:01:07.218Z,75.13
2023-01-18T01:03:54.663Z,75.25
2023-01-18T01:06:45.783Z,75.95
2023-01-18T01:09:23.619Z,75.70
2023-01-18T01:12:10.339Z,75.63
2023-01-18T01:15:01.723Z,75.67
2023-01-18T01:17:48.629Z,75.49
2023-01-18T01:20:34.436Z,75.90
2023-01-18T01:23:40.496Z,75.42
2023-01-18T01:26:09.316Z,75.05
2023-01-18T01:28:45.492Z,74.54
2023-01-18T01:31:15.108Z,73.50
2023-01-18T01:33:42.424Z,74.21
2023-01-18T01:36:12.800Z,74.74
2023-01-18T01:38:41.518Z,74.26
2023-01-18T01:41:11.603Z,74.42
2023-01-18T01:43:51.411Z,74.48
2023-01-18T01:46:30.056Z,73.75
2023-01-18T01:49:12.691Z,74.28
2023-01-18T01:51:43.236Z,74.13
2023-01-18T01:54:23.985Z,74.22
2023-01-18T01:56:55.122Z,73.81
2023-01-18T01:59:22.283Z,73.93
2023-01-18T02:01:49.870Z,73.59
2023-01-18T02:04:17.090Z,73.97
2023-01-18T02:06:43.947Z,74.06
2023-01-18T02:09:15.847Z,73.83
2023-01-18T02:11:43.647Z,73.64
2023-01-18T02:14:16.766Z,73.53
2023-01-18T02:16:55.461Z,73.32
2023-01-18T02:19:47.198Z,73.56
2023-01-18T02:22:34.797Z,73.79
2023-01-18T02:25:39.368Z,74.41
2023-01-18T02:28:18.161Z,72.82
2023-01-18T02:30:53.561Z,73.12
2023-01-18T02:33:28.157Z,73.68
2023-01-18T02:36:03.212Z,74.19
2023-01-18T02:38:44.405Z,73.95
2023-01-18T02:41:16.983Z,73.60
2023-01-18T02:44:07.630Z,72.99
2023-01-18T02:46:35.235Z,72.65
2023-01-18T02:49:18.933Z,73.24
2023-01-18T02:51:45.854Z,73.52
2023-01-18T02:54:13.447Z,72.99
2023-01-18T02:56:45.349Z,73.44
2023-01-18T02:59:14.258Z,73.05
2023-01-18T03:02:10.123Z,71.77
2023-01-18T03:04:54.478Z,73.19
2023-01-18T03:07:28.824Z,72.89
2023-01-18T03:09:57.989Z,73.32
2023-01-18T03:12:48.240Z,72.96
2023-01-18T03:15:17.753Z,72.11
2023-01-18T03:17:47.113Z,72.62
2023-01-18T03:20:18.575Z,72.74
2023-01-18T03:23:10.035Z,73.09
2023-01-18T03:25:41.435Z,72.67
2023-01-18T03:28:32.577Z,71.65
2023-01-18T03:31:21.832Z,71.08
2023-01-18T03:33:55.107Z,71.88
2023-01-18T03:36:37.002Z,72.11
2023-01-18T03:39:09.219Z,71.71
2023-01-18T03:41:40.676Z,71.55
2023-01-18T03:44:35.803Z,70.38
2023-01-18T03:47:05.583Z,70.76
2023-01-18T03:49:34.634Z,71.49
2023-01-18T03:52:10.388Z,71.26
2023-01-18T03:54:44.852Z,70.89
2023-01-18T03:57:34.875Z,71.02
2023-01-18T04:00:06.096Z,70.25
2023-01-18T04:02:39.823Z,70.52
2023-01-18T04:05:07.424Z,70.80
2023-01-18T04:07:34.295Z,70.86
2023-01-18T04:10:01.750Z,70.66
2023-01-18T04:12:28.936Z,71.43
2023-01-18T04:14:55.872Z,70.50
2023-01-18T04:17:22.850Z,71.03
2023-01-18T04:19:49.791Z,71.26
2023-01-18T04:22:16.998Z,71.52
2023-01-18T04:24:43.918Z,71.85
2023-01-18T04:27:11.181Z,71.68
2023-01-18T04:29:38.146Z,70.49
2023-01-18T04:32:06.088Z,70.46
2023-01-18T04:34:33.970Z,71.44
2023-01-18T04:37:01.234Z,72.38
2023-01-18T04:39:28.435Z,72.53
2023-01-18T04:41:57.131Z,71.70
2023-01-18T04:44:24.273Z,71.40
2023-01-18T04:46:51.486Z,71.49
2023-01-18T04:49:18.462Z,72.48
2023-01-18T04:51:46.607Z,72.21
2023-01-18T04:54:17.568Z,72.04
2023-01-18T04:56:44.758Z,71.47
2023-01-18T04:59:17.452Z,70.80
2023-01-18T05:01:44.430Z,71.35
2023-01-18T05:04:11.329Z,70.50
2023-01-18T05:06:38.286Z,70.84
2023-01-18T05:09:05.301Z,71.07
2023-01-18T05:11:32.175Z,71.31
2023-01-18T05:13:59.141Z,70.28
2023-01-18T05:16:26.090Z,70.11
2023-01-18T05:18:52.986Z,70.83
2023-01-18T05:21:20.301Z,70.96
2023-01-18T05:23:47.303Z,70.99
2023-01-18T05:26:22.807Z,71.56
2023-01-18T05:28:50.958Z,70.55
2023-01-18T05:31:21.424Z,70.66
2023-01-18T05:33:48.974Z,71.85
2023-01-18T05:36:15.973Z,71.81
2023-01-18T05:38:42.848Z,71.92
2023-01-18T05:41:09.754Z,72.10
2023-01-18T05:43:38.307Z,71.75
2023-01-18T05:46:05.679Z,71.62
2023-01-18T05:48:32.616Z,72.24
2023-01-18T05:50:59.679Z,72.08
2023-01-18T05:53:26.654Z,72.00
2023-01-18T05:56:01.961Z,72.03
2023-01-18T05:58:29.369Z,71.90
2023-01-18T06:00:56.785Z,71.20
2023-01-18T06:03:25.285Z,71.78
2023-01-18T06:05:52.526Z,72.20
2023-01-18T06:08:20.240Z,72.03
2023-01-18T06:10:54.456Z,71.99
2023-01-18T06:13:22.872Z,71.60
2023-01-18T06:15:49.879Z,71.22
2023-01-18T06:18:16.745Z,71.32
2023-01-18T06:20:44.216Z,71.82
2023-01-18T06:23:11.116Z,72.20
2023-01-18T06:25:38.261Z,71.86
2023-01-18T06:28:05.436Z,71.44
2023-01-18T06:30:34.574Z,70.97
2023-01-18T06:33:07.084Z,70.52
2023-01-18T06:35:34.659Z,70.06
2023-01-18T06:38:02.808Z,70.12
2023-01-18T06:40:30.453Z,70.04
2023-01-18T06:42:57.806Z,69.49
2023-01-18T06:45:26.045Z,68.92
2023-01-18T06:47:53.461Z,69.31
2023-01-18T06:50:20.611Z,69.22
2023-01-18T06:52:47.770Z,69.54
2023-01-18T06:55:15.725Z,69.41
2023-01-18T06:57:42.953Z,69.38
2023-01-18T07:00:12.051Z,68.62
2023-01-18T07:02:39.039Z,69.48
2023-01-18T07:05:06.745Z,69.90
2023-01-18T07:07:33.820Z,70.33
2023-01-18T07:10:00.697Z,70.08
2023-01-18T07:12:27.761Z,70.01
2023-01-18T07:14:54.727Z,70.14
2023-01-18T07:17:21.654Z,70.02
2023-01-18T07:19:48.682Z,70.19
2023-01-18T07:22:15.531Z,69.80
2023-01-18T07:24:42.453Z,70.14
2023-01-18T07:27:09.381Z,70.25
2023-01-18T07:29:36.457Z,69.74
2023-01-18T07:32:03.540Z,69.86
2023-01-18T07:34:30.745Z,69.49
2023-01-18T07:36:57.843Z,69.08
2023-01-18T07:39:24.808Z,69.16
2023-01-18T07:41:51.771Z,68.68
2023-01-18T07:44:18.874Z,68.79
2023-01-18T07:46:45.894Z,68.94
2023-01-18T07:49:12.859Z,69.33
2023-01-18T07:51:39.934Z,68.82
2023-01-18T07:54:07.527Z,68.51
2023-01-18T07:56:34.523Z,68.00
2023-01-18T07:59:01.348Z,67.81
2023-01-18T08:01:28.939Z,68.58
2023-01-18T08:03:55.874Z,68.52
2023-01-18T08:06:25.170Z,68.77
2023-01-18T08:08:54.112Z,68.65
2023-01-18T08:11:21.277Z,68.46
2023-01-18T08:13:49.458Z,68.34
2023-01-18T08:16:16.657Z,68.86
2023-01-18T08:18:45.638Z,68.62
2023-01-18T08:21:13.632Z,68.20
2023-01-18T08:23:41.186Z,68.59
2023-01-18T08:26:10.412Z,67.72
2023-01-18T08:28:37.439Z,68.18
2023-01-18T08:31:17.086Z,68.36
2023-01-18T08:33:47.103Z,68.02
2023-01-18T08:36:16.583Z,68.28
2023-01-18T08:38:47.208Z,68.15
2023-01-18T08:41:14.150Z,67.80
2023-01-18T08:43:41.151Z,68.16
2023-01-18T08:46:08.168Z,67.62
2023-01-18T08:48:35.144Z,67.10
2023-01-18T08:51:03.305Z,67.32
2023-01-18T08:53:31.457Z,66.74
2023-01-18T08:55:58.420Z,66.53
2023-01-18T08:58:25.813Z,66.19
2023-01-18T09:00:53.690Z,66.11
2023-01-18T09:03:22.003Z,64.99
2023-01-18T09:05:49.663Z,65.03
2023-01-18T09:08:17.706Z,64.62
2023-01-18T09:10:45.273Z,63.94
2023-01-18T09:13:12.391Z,63.66
2023-01-18T09:15:39.496Z,63.24
2023-01-18T09:18:08.173Z,62.37
2023-01-18T09:20:36.351Z,61.56
2023-01-18T09:23:05.182Z,60.18
2023-01-18T09:25:32.171Z,61.24
2023-01-18T09:28:00.900Z,58.40
2023-01-18T09:30:27.783Z,58.21
2023-01-18T09:32:54.763Z,56.63
2023-01-18T09:35:21.617Z,56.32
2023-01-18T09:37:48.563Z,57.23
2023-01-18T09:40:18.201Z,57.45
2023-01-18T09:42:47.706Z,57.98
2023-01-18T10:18:11.397Z,60.88
2023-01-18T10:20:49.153Z,59.93
2023-01-18T10:23:24.940Z,59.07
2023-01-18T10:26:08.391Z,57.91
2023-01-18T10:28:41.385Z,57.42
2023-01-18T10:31:23.377Z,56.91
2023-01-18T10:33:56.213Z,56.74
2023-01-18T10:36:33.606Z,57.56
2023-01-18T10:39:05.479Z,56.90
2023-01-18T10:41:37.959Z,56.36
2023-01-18T10:44:05.092Z,56.67
2023-01-18T10:46:32.240Z,57.38
2023-01-18T10:48:59.364Z,57.56
2023-01-18T10:51:46.475Z,57.63
2023-01-18T10:54:27.063Z,57.68
2023-01-18T10:57:06.007Z,57.55
2023-01-18T10:59:40.909Z,57.87
2023-01-18T11:02:23.601Z,58.23
2023-01-18T11:04:58.982Z,58.34
2023-01-18T11:07:27.934Z,58.40
2023-01-18T11:09:59.411Z,57.93
2023-01-18T11:12:42.417Z,57.10
2023-01-18T11:15:15.309Z,57.84
2023-01-18T11:18:11.600Z,57.50
2023-01-18T11:20:48.181Z,57.50
2023-01-18T11:23:31.091Z,57.25
2023-01-18T11:26:01.455Z,57.64
2023-01-18T11:28:28.322Z,57.81
2023-01-18T11:31:14.941Z,57.63
2023-01-18T11:34:03.071Z,58.04
2023-01-18T11:36:48.257Z,57.53
2023-01-18T11:39:35.826Z,57.03
2023-01-18T11:42:21.748Z,58.10
2023-01-18T11:45:25.553Z,57.44
2023-01-18T11:48:38.237Z,57.55
2023-01-18T11:51:10.755Z,57.29
2023-01-18T11:54:18.906Z,56.74
2023-01-18T11:56:50.961Z,56.73
2023-01-18T11:59:29.540Z,57.01
2023-01-18T12:02:33.963Z,56.16
2023-01-18T12:05:25.742Z,56.19
2023-01-18T12:07:58.805Z,56.14
2023-01-18T12:10:30.245Z,55.53
2023-01-18T12:13:16.883Z,55.26
2023-01-18T12:15:58.905Z,56.04
2023-01-18T12:18:40.519Z,55.01
2023-01-18T12:21:14.714Z,54.49
2023-01-18T12:24:22.978Z,52.92
2023-01-18T12:26:58.195Z,52.52
2023-01-18T12:30:19.753Z,52.88
2023-01-18T12:33:13.194Z,52.40
2023-01-18T12:36:06.989Z,51.58
2023-01-18T12:38:35.960Z,52.35
2023-01-18T12:41:21.876Z,52.19
2023-01-18T12:44:30.126Z,52.90
2023-01-18T12:47:11.839Z,53.73
2023-01-18T12:49:45.710Z,54.07
2023-01-18T12:52:19.342Z,54.14
2023-01-18T12:54:56.087Z,54.12
2023-01-18T12:57:24.075Z,53.98
2023-01-18T13:00:01.704Z,53.99
2023-01-18T13:02:37.474Z,54.65
2023-01-18T13:05:04.475Z,54.52
2023-01-18T13:08:01.465Z,54.30
2023-01-18T13:10:29.292Z,54.78
2023-01-18T13:12:57.959Z,55.69
2023-01-18T13:15:53.794Z,56.20
2023-01-18T13:18:42.570Z,56.70
2023-01-18T13:21:46.741Z,56.97
2023-01-18T13:24:41.406Z,57.51
2023-01-18T13:27:14.267Z,57.48
2023-01-18T13:29:42.526Z,57.51
2023-01-18T13:32:35.740Z,58.68
2023-01-18T13:35:31.097Z,58.36
2023-01-18T13:38:01.751Z,58.60
2023-01-18T13:40:42.849Z,58.88
2023-01-18T13:43:37.316Z,58.47
2023-01-18T13:46:20.771Z,59.42
2023-01-18T13:48:47.768Z,59.62
2023-01-18T13:51:42.814Z,60.10
2023-01-18T13:54:10.499Z,59.47
2023-01-18T13:56:39.734Z,60.40
2023-01-18T13:59:12.430Z,59.62
2023-01-18T14:01:44.067Z,60.57
2023-01-18T14:04:37.083Z,61.12
2023-01-18T14:07:06.534Z,61.23
2023-01-18T14:09:48.986Z,61.54
2023-01-18T14:12:16.129Z,61.17
2023-01-18T14:14:53.777Z,60.94
2023-01-18T14:17:20.959Z,61.53
2023-01-18T14:19:47.751Z,61.79
2023-01-18T14:22:33.179Z,61.68
2023-01-18T14:25:21.217Z,62.08
2023-01-18T14:28:01.680Z,61.55
2023-01-18T14:30:35.508Z,61.57
2023-01-18T14:33:23.896Z,62.23
2023-01-18T14:35:57.884Z,61.61
2023-01-18T14:38:26.085Z,62.16
2023-01-18T14:40:57.292Z,62.31
2023-01-18T14:43:35.173Z,62.19
2023-01-18T14:46:07.473Z,61.99
2023-01-18T14:48:40.079Z,62.56
2023-01-18T14:51:07.203Z,62.67
2023-01-18T14:53:46.215Z,62.46
2023-01-18T14:56:20.487Z,63.46
2023-01-18T14:59:03.264Z,63.28
2023-01-18T15:01:39.683Z,62.43
2023-01-18T15:04:18.463Z,62.82
2023-01-18T15:06:49.948Z,63.84
2023-01-18T15:09:21.058Z,63.86
2023-01-18T15:11:49.644Z,64.09
2023-01-18T15:14:20.859Z,63.81
2023-01-18T15:16:50.698Z,63.61
2023-01-18T15:19:43.258Z,63.41
2023-01-18T15:22:15.979Z,63.62
2023-01-18T15:24:45.504Z,63.88
2023-01-18T15:27:18.258Z,63.61
2023-01-18T15:29:54.168Z,63.30
2023-01-18T15:32:23.713Z,62.87
2023-01-18T15:34:52.958Z,62.97
2023-01-18T15:37:32.405Z,63.18
2023-01-18T15:40:02.209Z,63.38
2023-01-18T15:42:44.366Z,63.24
2023-01-18T15:45:25.792Z,63.44
2023-01-18T15:48:14.638Z,63.45
2023-01-18T15:50:53.248Z,63.82
2023-01-18T15:53:31.799Z,63.74
2023-01-18T15:56:04.963Z,63.77
2023-01-18T15:58:43.054Z,63.77
2023-01-18T16:01:21.784Z,63.93
2023-01-18T16:03:48.769Z,63.11
2023-01-18T16:06:22.989Z,63.33
2023-01-18T16:09:12.102Z,64.09
2023-01-18T16:11:54.403Z,63.82
2023-01-18T16:14:24.908Z,64.02
2023-01-18T16:16:53.602Z,63.92
2023-01-18T16:19:23.406Z,63.43
2023-01-18T16:21:54.710Z,64.61
2023-01-18T16:24:30.920Z,64.83
2023-01-18T16:27:01.900Z,64.39
2023-01-18T16:29:30.042Z,64.81
2023-01-18T16:32:36.026Z,65.19
2023-01-18T16:35:09.968Z,65.19
2023-01-18T16:37:38.478Z,64.15
2023-01-18T16:40:06.496Z,65.02
2023-01-18T16:42:54.390Z,65.26
2023-01-18T16:45:21.674Z,65.43
2023-01-18T16:47:49.100Z,64.77
2023-01-18T16:50:16.542Z,65.26
2023-01-18T16:52:43.512Z,64.43
2023-01-18T16:55:15.195Z,65.13
2023-01-18T16:57:43.462Z,65.34
2023-01-18T17:00:17.990Z,65.24
2023-01-18T17:02:45.875Z,64.78
2023-01-18T17:05:14.109Z,64.97
2023-01-18T17:07:41.328Z,64.94
2023-01-18T17:10:34.260Z,64.66
2023-01-18T17:13:01.636Z,65.24
2023-01-18T17:15:30.894Z,65.25
2023-01-18T17:17:58.036Z,65.60
2023-01-18T17:20:26.796Z,65.74
2023-01-18T17:22:55.905Z,65.88
2023-01-18T17:25:24.064Z,65.63
2023-01-18T17:27:51.107Z,65.81
2023-01-18T17:30:21.749Z,66.08
2023-01-18T17:32:49.258Z,66.03
2023-01-18T17:35:18.233Z,66.14
2023-01-18T17:37:45.823Z,66.18
2023-01-18T17:40:22.698Z,65.89
2023-01-18T17:42:52.985Z,66.86
2023-01-18T17:45:19.907Z,66.95
2023-01-18T17:47:46.828Z,67.06
2023-01-18T17:50:21.645Z,66.88
2023-01-18T17:52:49.107Z,66.47
2023-01-18T17:55:17.841Z,66.87
2023-01-18T17:57:47.083Z,67.56
2023-01-18T18:00:16.215Z,67.43
2023-01-18T18:02:43.609Z,68.08
2023-01-18T18:05:10.981Z,68.24
2023-01-18T18:07:38.257Z,67.41
2023-01-18T18:10:05.912Z,66.94
2023-01-18T18:12:35.163Z,67.68
2023-01-18T18:15:03.112Z,68.91
2023-01-18T18:17:31.599Z,68.77
2023-01-18T18:19:58.810Z,68.69
2023-01-18T18:22:26.221Z,69.04
2023-01-18T18:24:53.807Z,67.93
2023-01-18T18:27:23.165Z,68.47
2023-01-18T18:29:50.843Z,68.52
2023-01-18T18:32:17.859Z,68.47
2023-01-18T18:34:44.841Z,68.16
2023-01-18T18:37:11.934Z,68.39
2023-01-18T18:39:39.085Z,67.93
2023-01-18T18:42:06.187Z,68.80
2023-01-18T18:44:33.179Z,68.57
2023-01-18T18:47:00.433Z,69.09
2023-01-18T18:49:28.184Z,68.76
2023-01-18T18:51:55.319Z,68.80
2023-01-18T18:54:22.607Z,69.32
2023-01-18T18:56:49.558Z,68.58
2023-01-18T18:59:16.668Z,68.79
2023-01-18T19:01:43.793Z,69.00
2023-01-18T19:04:10.796Z,68.79
2023-01-18T19:06:38.436Z,69.11
2023-01-18T19:09:05.878Z,69.00
2023-01-18T19:11:32.962Z,67.61
2023-01-18T19:14:00.134Z,68.67
2023-01-18T19:16:27.292Z,68.56
2023-01-18T19:18:54.260Z,68.58
2023-01-18T19:21:21.513Z,69.20
2023-01-18T19:23:48.461Z,68.83
2023-01-18T19:26:15.589Z,68.97
2023-01-18T19:28:42.523Z,68.31
2023-01-18T19:31:09.465Z,69.28
2023-01-18T19:33:36.892Z,69.70
2023-01-18T19:36:14.425Z,70.40
2023-01-18T19:38:46.046Z,70.90
2023-01-18T19:41:13.978Z,71.03
2023-01-18T19:43:41.898Z,70.25
2023-01-18T19:46:10.908Z,70.38
2023-01-18T19:48:39.361Z,71.60
2023-01-18T19:51:20.861Z,72.23
2023-01-18T19:53:48.428Z,71.80
2023-01-18T19:56:15.358Z,72.03
2023-01-18T19:58:42.254Z,71.22
2023-01-18T20:01:11.483Z,71.34
2023-01-18T20:03:38.723Z,71.38
2023-01-18T20:06:15.705Z,71.98
2023-01-18T20:08:42.953Z,71.39
2023-01-18T20:11:13.181Z,71.26
2023-01-18T20:13:42.828Z,71.06
2023-01-18T20:16:10.444Z,70.26
2023-01-18T20:18:40.658Z,70.22
2023-01-18T20:21:14.222Z,71.02
2023-01-18T20:23:43.816Z,70.99
2023-01-18T20:26:11.939Z,70.74
2023-01-18T20:28:39.264Z,70.85
2023-01-18T20:31:06.568Z,69.83
2023-01-18T20:33:35.390Z,70.03
2023-01-18T20:36:03.297Z,69.92
2023-01-18T20:38:30.607Z,70.79
2023-01-18T20:40:58.039Z,70.86
2023-01-18T20:43:25.028Z,70.19
2023-01-18T20:46:10.437Z,70.97
2023-01-18T20:48:38.434Z,70.08
2023-01-18T20:51:07.553Z,70.85
2023-01-18T20:53:35.042Z,71.42
2023-01-18T20:56:12.000Z,71.87
2023-01-18T20:58:51.258Z,71.89
2023-01-18T21:01:18.764Z,71.54
2023-01-18T21:03:47.529Z,70.97
2023-01-18T21:06:16.173Z,70.91
2023-01-18T21:08:43.075Z,71.21
2023-01-18T21:11:15.022Z,71.50
2023-01-18T21:13:42.019Z,71.90
2023-01-18T21:16:08.960Z,71.25
2023-01-18T21:18:37.716Z,70.11
2023-01-18T21:21:04.717Z,70.21
2023-01-18T21:23:37.979Z,71.19
2023-01-18T21:26:07.844Z,71.37
2023-01-18T21:28:35.050Z,71.19
2023-01-18T21:31:02.514Z,71.13
2023-01-18T21:33:29.718Z,70.27
2023-01-18T21:36:04.142Z,69.86
2023-01-18T21:38:31.230Z,70.85
2023-01-18T21:41:18.404Z,71.59
2023-01-18T21:44:03.985Z,71.95
2023-01-18T21:46:31.071Z,71.74
2023-01-18T21:49:02.215Z,70.84
2023-01-18T21:51:47.926Z,70.71
2023-01-18T21:54:14.965Z,71.34
2023-01-18T21:56:45.418Z,71.20
2023-01-18T21:59:13.378Z,71.18
2023-01-18T22:01:45.420Z,71.69
2023-01-18T22:04:32.979Z,71.16
2023-01-18T22:07:00.377Z,70.58
2023-01-18T22:09:29.269Z,71.38
2023-01-18T22:11:57.505Z,71.62
2023-01-18T22:14:25.852Z,71.53
2023-01-18T22:16:53.536Z,71.96
2023-01-18T22:19:20.507Z,72.03
2023-01-18T22:21:48.641Z,72.10
2023-01-18T22:24:17.081Z,71.91
2023-01-18T22:26:45.298Z,72.68
2023-01-18T22:29:13.211Z,72.39
2023-01-18T22:31:40.454Z,71.95
2023-01-18T22:34:08.204Z,71.98
2023-01-18T22:36:35.203Z,71.01
2023-01-18T22:39:02.376Z,70.86
2023-01-18T22:41:30.213Z,71.63
2023-01-18T22:43:57.550Z,72.13
2023-01-18T22:46:25.002Z,71.87
2023-01-18T22:48:52.604Z,71.68
2023-01-18T22:51:22.533Z,71.27
2023-01-18T22:53:50.447Z,70.93
2023-01-18T22:56:23.120Z,71.41
2023-01-18T22:58:50.828Z,71.64
2023-01-18T23:01:21.922Z,71.57
2023-01-18T23:03:50.345Z,71.23
2023-01-18T23:06:18.801Z,71.71
2023-01-18T23:08:47.296Z,71.43
2023-01-18T23:11:29.820Z,71.62
2023-01-18T23:14:16.642Z,72.04
2023-01-18T23:17:02.713Z,72.06
2023-01-18T23:19:31.019Z,71.91
2023-01-18T23:21:58.272Z,72.09
2023-01-18T23:24:25.578Z,71.95
2023-01-18T23:26:52.792Z,71.68
2023-01-18T23:29:20.315Z,72.58
2023-01-18T23:31:47.492Z,71.71
2023-01-18T23:34:14.735Z,72.19
2023-01-18T23:36:41.685Z,71.28
2023-01-18T23:39:27.279Z,71.84
2023-01-18T23:42:12.875Z,71.03
2023-01-18T23:44:58.437Z,72.00
2023-01-18T23:47:44.080Z,71.79
2023-01-18T23:50:30.389Z,71.71
2023-01-18T23:53:18.973Z,71.74
2023-01-18T23:55:46.234Z,72.00
2023-01-18T23:58:13.329Z,72.49
